Time;durP1;ratioP1;P1;durP2;ratioP2;P2;SDS_P1;SDS_P2;PMS_P1;PMS_P2;Temp;Humidity;BMP_temperature;BMP_pressure;BME280_temperature;BME280_humidity;BME280_pressure;Samples;Min_cycle;Max_cycle;Signal;HPM_P1;HPM_P2
2021/03/29 00:02:06;;;;;;;2.90;2.70;;;;;;;;;;4974043;28;20423;-79
2021/03/29 00:04:32;;;;;;;7.73;3.00;;;;;;;;;;4974567;28;20412;-79
2021/03/29 00:10:06;;;;;;;4.43;2.50;;;;;;;;;;4974476;28;20427;-77
2021/03/29 00:12:33;;;;;;;3.20;2.30;;;;;;;;;;4974927;28;20455;-79
2021/03/29 00:14:59;;;;;;;7.83;4.63;;;;;;;;;;4974691;28;20517;-77
2021/03/29 00:17:25;;;;;;;5.43;2.80;;;;;;;;;;4974085;28;20519;-76
2021/03/29 00:19:51;;;;;;;6.53;3.30;;;;;;;;;;4974045;28;20415;-77
2021/03/29 00:25:21;;;;;;;4.23;3.03;;;;;;;;;;4974105;28;20417;-78
2021/03/29 00:27:47;;;;;;;5.30;3.80;;;;;;;;;;4973833;28;20805;-77
2021/03/29 00:30:15;;;;;;;10.67;4.20;;;;;;;;;;4973994;28;20411;-77
2021/03/29 00:32:42;;;;;;;6.03;3.23;;;;;;;;;;4973825;28;21095;-77
2021/03/29 00:35:08;;;;;;;5.63;3.87;;;;;;;;;;4973678;28;20411;-81
2021/03/29 00:37:35;;;;;;;5.37;3.13;;;;;;;;;;4973812;28;20483;-78
2021/03/29 00:40:01;;;;;;;5.13;3.33;;;;;;;;;;4973961;28;20497;-76
2021/03/29 00:42:28;;;;;;;6.33;3.83;;;;;;;;;;4973614;28;20410;-79
2021/03/29 00:44:54;;;;;;;8.33;3.87;;;;;;;;;;4976167;28;20964;-78
2021/03/29 00:47:21;;;;;;;7.80;4.07;;;;;;;;;;4978901;28;20517;-79
2021/03/29 00:49:47;;;;;;;7.17;4.70;;;;;;;;;;4974590;28;20947;-82
2021/03/29 00:55:17;;;;;;;5.77;3.60;;;;;;;;;;4974348;28;20501;-77
2021/03/29 00:57:43;;;;;;;7.00;4.70;;;;;;;;;;4973903;28;20462;-80
2021/03/29 01:00:13;;;;;;;8.20;4.43;;;;;;;;;;4956629;28;20878;-77
2021/03/29 01:02:40;;;;;;;5.57;4.10;;;;;;;;;;4973840;28;20458;-81
2021/03/29 01:05:12;;;;;;;5.07;3.33;;;;;;;;;;4973412;28;20466;-76
2021/03/29 01:10:42;;;;;;;5.23;4.73;;;;;;;;;;4973912;28;20509;-77
2021/03/29 01:13:10;;;;;;;7.50;3.80;;;;;;;;;;4973293;28;20399;-78
2021/03/29 01:15:38;;;;;;;8.13;4.03;;;;;;;;;;4973476;28;20510;-79
2021/03/29 01:18:05;;;;;;;6.17;3.90;;;;;;;;;;4973308;28;20747;-78
2021/03/29 01:20:50;;;;;;;4.70;3.00;;;;;;;;;;4973194;28;20416;-78
2021/03/29 01:23:17;;;;;;;3.03;2.50;;;;;;;;;;4973037;28;20438;-78
2021/03/29 01:25:43;;;;;;;5.73;3.40;;;;;;;;;;4973089;28;20425;-78
2021/03/29 01:28:10;;;;;;;6.97;3.57;;;;;;;;;;4973185;28;20449;-77
2021/03/29 01:30:37;;;;;;;6.70;3.50;;;;;;;;;;4973475;28;20429;-79
2021/03/29 01:33:04;;;;;;;4.40;3.07;;;;;;;;;;4973047;28;20785;-77
2021/03/29 01:35:31;;;;;;;7.73;4.37;;;;;;;;;;4973064;28;20419;-79
2021/03/29 01:37:58;;;;;;;6.63;3.90;;;;;;;;;;4973033;28;20478;-77
2021/03/29 01:40:25;;;;;;;5.43;2.97;;;;;;;;;;4972902;28;20446;-77
2021/03/29 01:42:51;;;;;;;8.60;3.90;;;;;;;;;;4972845;28;20415;-76
2021/03/29 01:45:18;;;;;;;5.30;3.27;;;;;;;;;;4972778;28;20933;-78
2021/03/29 01:47:45;;;;;;;3.93;2.53;;;;;;;;;;4972963;28;20473;-77
2021/03/29 01:50:12;;;;;;;6.10;3.40;;;;;;;;;;4972735;28;20415;-79
2021/03/29 01:55:42;;;;;;;7.63;3.47;;;;;;;;;;4972731;28;20441;-76
2021/03/29 01:58:08;;;;;;;5.73;3.40;;;;;;;;;;4975982;28;20417;-77
2021/03/29 02:00:37;;;;;;;3.20;2.90;;;;;;;;;;4977659;28;20426;-77
2021/03/29 02:03:07;;;;;;;9.00;3.37;;;;;;;;;;4976732;28;20818;-76
2021/03/29 02:05:33;;;;;;;4.33;3.13;;;;;;;;;;4976935;28;20414;-77
2021/03/29 02:11:03;;;;;;;4.43;3.20;;;;;;;;;;4976296;28;20505;-78
2021/03/29 02:13:39;;;;;;;6.73;3.50;;;;;;;;;;4976494;28;20410;-77
2021/03/29 02:16:08;;;;;;;3.40;3.10;;;;;;;;;;4976651;28;20481;-78
2021/03/29 02:18:38;;;;;;;7.00;3.80;;;;;;;;;;4976538;28;20407;-77
2021/03/29 02:21:06;;;;;;;9.10;3.00;;;;;;;;;;4976526;28;20411;-77
2021/03/29 02:23:32;;;;;;;3.50;3.20;;;;;;;;;;4976342;28;20406;-80
2021/03/29 02:25:59;;;;;;;6.03;2.80;;;;;;;;;;4976408;28;20457;-79
2021/03/29 02:28:26;;;;;;;4.83;3.03;;;;;;;;;;4976057;28;20453;-75
2021/03/29 02:30:52;;;;;;;3.50;2.50;;;;;;;;;;4976408;28;20518;-76
2021/03/29 02:33:18;;;;;;;4.23;2.33;;;;;;;;;;4976728;28;20449;-77
2021/03/29 02:35:45;;;;;;;3.10;2.80;;;;;;;;;;4980979;28;20868;-79
2021/03/29 02:41:15;;;;;;;3.77;2.27;;;;;;;;;;4976641;28;20413;-82
2021/03/29 02:43:42;;;;;;;3.80;3.13;;;;;;;;;;4976393;28;20398;-79
2021/03/29 02:46:09;;;;;;;3.33;2.87;;;;;;;;;;4976273;28;20501;-77
2021/03/29 02:48:37;;;;;;;3.03;2.73;;;;;;;;;;4976110;28;20482;-80
2021/03/29 02:51:06;;;;;;;9.23;3.20;;;;;;;;;;4975940;28;20429;-80
2021/03/29 02:53:33;;;;;;;7.20;3.23;;;;;;;;;;4975846;28;20431;-79
2021/03/29 02:56:01;;;;;;;3.33;2.80;;;;;;;;;;4975920;28;20414;-76
2021/03/29 02:58:28;;;;;;;2.80;2.60;;;;;;;;;;4975566;28;20438;-78
2021/03/29 03:00:54;;;;;;;3.77;2.23;;;;;;;;;;4975506;28;20414;-76
2021/03/29 03:03:20;;;;;;;3.57;2.63;;;;;;;;;;4975538;28;20796;-79
2021/03/29 03:05:46;;;;;;;3.30;3.00;;;;;;;;;;4975534;28;20407;-77
2021/03/29 03:11:17;;;;;;;3.23;2.53;;;;;;;;;;4975460;28;20473;-77
2021/03/29 03:13:44;;;;;;;4.37;2.53;;;;;;;;;;4957999;28;20423;-79
2021/03/29 03:16:10;;;;;;;6.77;2.80;;;;;;;;;;4975519;28;20411;-77
2021/03/29 03:18:36;;;;;;;4.90;2.73;;;;;;;;;;4975348;28;20762;-76
2021/03/29 03:21:02;;;;;;;5.77;2.30;;;;;;;;;;4975006;28;20454;-78
2021/03/29 03:23:28;;;;;;;4.60;2.87;;;;;;;;;;4975203;28;20422;-78
2021/03/29 03:25:54;;;;;;;4.30;2.53;;;;;;;;;;4975276;28;20902;-76
2021/03/29 03:28:22;;;;;;;4.97;2.50;;;;;;;;;;4975101;28;20473;-76
2021/03/29 03:30:49;;;;;;;3.17;2.63;;;;;;;;;;4957994;28;20442;-77
2021/03/29 03:33:16;;;;;;;2.53;1.70;;;;;;;;;;4974915;28;20905;-75
2021/03/29 03:35:43;;;;;;;3.20;2.67;;;;;;;;;;4975159;28;20415;-80
2021/03/29 03:41:14;;;;;;;5.20;2.20;;;;;;;;;;4974859;28;20464;-77
2021/03/29 03:43:44;;;;;;;3.77;2.13;;;;;;;;;;4975043;28;20458;-78
2021/03/29 03:46:10;;;;;;;5.23;2.13;;;;;;;;;;4974959;28;20505;-78
2021/03/29 03:48:38;;;;;;;2.03;1.83;;;;;;;;;;4975295;28;20446;-78
2021/03/29 03:51:05;;;;;;;3.00;2.40;;;;;;;;;;4975515;28;20794;-78
2021/03/29 03:56:34;;;;;;;2.40;1.83;;;;;;;;;;4974849;28;20973;-76
2021/03/29 03:59:00;;;;;;;2.93;2.50;;;;;;;;;;4974652;28;20414;-78
2021/03/29 04:01:27;;;;;;;3.67;2.20;;;;;;;;;;4974531;28;20505;-80
2021/03/29 04:03:53;;;;;;;3.70;2.73;;;;;;;;;;4974596;28;20411;-76
2021/03/29 04:06:20;;;;;;;3.17;2.87;;;;;;;;;;4974621;28;20473;-80
2021/03/29 04:08:47;;;;;;;4.80;3.03;;;;;;;;;;4974581;28;20423;-80
2021/03/29 04:11:13;;;;;;;5.40;2.37;;;;;;;;;;4974618;28;20411;-76
2021/03/29 04:13:40;;;;;;;6.75;3.28;;;;;;;;;;4974373;28;20429;-77
2021/03/29 04:16:07;;;;;;;6.53;3.00;;;;;;;;;;4974793;28;20187;-81
2021/03/29 04:18:33;;;;;;;10.80;3.63;;;;;;;;;;4974786;28;20418;-80
2021/03/29 04:21:00;;;;;;;8.65;3.45;;;;;;;;;;4974180;28;20421;-81
2021/03/29 04:26:29;;;;;;;23.40;3.60;;;;;;;;;;4981616;28;20222;-79
2021/03/29 04:28:55;;;;;;;12.50;5.10;;;;;;;;;;4976093;28;20422;-77
2021/03/29 04:31:21;;;;;;;11.15;4.10;;;;;;;;;;4974382;28;20514;-79
2021/03/29 04:33:47;;;;;;;13.63;3.80;;;;;;;;;;4974231;28;20205;-77
2021/03/29 04:36:13;;;;;;;5.63;3.27;;;;;;;;;;4974106;28;20470;-79
2021/03/29 04:41:42;;;;;;;8.45;3.20;;;;;;;;;;4974293;28;20651;-81
2021/03/29 04:44:08;;;;;;;4.70;3.38;;;;;;;;;;4974168;28;20175;-80
2021/03/29 04:46:36;;;;;;;8.65;4.40;;;;;;;;;;4973873;28;20205;-81
2021/03/29 04:49:02;;;;;;;9.60;4.47;;;;;;;;;;4956550;28;20182;-80
2021/03/29 04:51:28;;;;;;;7.00;4.88;;;;;;;;;;4974024;28;20188;-78
2021/03/29 04:56:58;;;;;;;7.53;3.60;;;;;;;;;;4973915;28;20436;-79
2021/03/29 04:59:24;;;;;;;8.87;4.90;;;;;;;;;;4973305;28;20175;-79
2021/03/29 05:01:50;;;;;;;9.25;5.45;;;;;;;;;;4973222;28;20419;-78
2021/03/29 05:04:16;;;;;;;11.30;4.63;;;;;;;;;;4973405;28;20578;-78
2021/03/29 05:06:42;;;;;;;8.43;4.27;;;;;;;;;;4973834;28;20206;-75
2021/03/29 05:09:08;;;;;;;9.23;4.85;;;;;;;;;;4973393;28;20456;-80
2021/03/29 05:11:46;;;;;;;11.82;6.45;;;;;;;;;;4973615;28;20174;-80
2021/03/29 05:14:13;;;;;;;11.30;4.57;;;;;;;;;;4973131;28;20166;-78
2021/03/29 05:16:39;;;;;;;13.43;5.15;;;;;;;;;;4973428;28;20225;-79
2021/03/29 05:19:05;;;;;;;6.40;4.05;;;;;;;;;;4973197;28;20180;-80
2021/03/29 05:21:31;;;;;;;16.40;4.70;;;;;;;;;;4973596;28;20167;-78
2021/03/29 05:27:00;;;;;;;11.40;5.07;;;;;;;;;;4973661;28;20712;-77
2021/03/29 05:29:40;;;;;;;8.43;4.20;;;;;;;;;;4973335;28;20171;-78
2021/03/29 05:32:11;;;;;;;7.77;4.50;;;;;;;;;;4956528;28;20195;-78
2021/03/29 05:34:37;;;;;;;6.80;4.43;;;;;;;;;;4973682;28;20430;-78
2021/03/29 05:37:04;;;;;;;8.43;4.40;;;;;;;;;;4972943;28;20241;-78
2021/03/29 05:39:30;;;;;;;14.45;4.70;;;;;;;;;;4974830;28;20448;-81
2021/03/29 05:41:56;;;;;;;8.87;4.73;;;;;;;;;;4973798;28;20175;-78
2021/03/29 05:44:22;;;;;;;17.20;5.57;;;;;;;;;;4973255;28;20423;-77
2021/03/29 05:46:48;;;;;;;15.30;5.03;;;;;;;;;;4972962;28;20501;-80
2021/03/29 05:49:14;;;;;;;14.55;6.45;;;;;;;;;;4973111;28;20422;-80
2021/03/29 05:51:41;;;;;;;14.53;6.17;;;;;;;;;;4972782;28;20202;-81
2021/03/29 05:57:11;;;;;;;13.87;5.00;;;;;;;;;;4972960;28;20995;-78
2021/03/29 05:59:40;;;;;;;17.13;5.23;;;;;;;;;;4973953;28;20721;-78
2021/03/29 06:02:07;;;;;;;19.37;5.40;;;;;;;;;;4974306;28;20415;-78
2021/03/29 06:04:40;;;;;;;14.07;5.40;;;;;;;;;;4974857;28;20415;-79
2021/03/29 06:07:11;;;;;;;16.50;6.63;;;;;;;;;;4973659;28;20510;-78
2021/03/29 06:09:37;;;;;;;13.17;5.37;;;;;;;;;;4973479;28;20410;-79
2021/03/29 06:12:03;;;;;;;15.50;6.50;;;;;;;;;;4978120;28;20480;-78
2021/03/29 06:14:29;;;;;;;12.13;4.87;;;;;;;;;;4974242;28;20403;-79
2021/03/29 06:16:55;;;;;;;21.00;6.20;;;;;;;;;;4973963;28;20836;-79
2021/03/29 06:19:40;;;;;;;7.90;4.70;;;;;;;;;;4973095;28;20473;-80
2021/03/29 06:28:04;;;;;;;6.50;4.60;;;;;;;;;;4973174;28;21039;-77
2021/03/29 06:30:34;;;;;;;17.03;5.70;;;;;;;;;;4973080;28;20431;-81
2021/03/29 06:33:03;;;;;;;11.83;4.20;;;;;;;;;;4972905;28;20546;-80
2021/03/29 06:35:32;;;;;;;9.03;5.37;;;;;;;;;;4972409;28;20469;-77
2021/03/29 06:38:05;;;;;;;17.30;5.37;;;;;;;;;;4972427;28;20482;-79
2021/03/29 06:40:31;;;;;;;12.63;5.33;;;;;;;;;;4972327;28;20469;-81
2021/03/29 06:42:57;;;;;;;18.13;5.47;;;;;;;;;;4972456;28;20514;-80
2021/03/29 06:45:23;;;;;;;6.43;4.20;;;;;;;;;;4975920;28;20427;-78
2021/03/29 06:47:49;;;;;;;7.50;3.93;;;;;;;;;;4975765;28;20517;-75
2021/03/29 06:50:23;;;;;;;11.40;5.00;;;;;;;;;;4975600;28;20417;-77
2021/03/29 06:52:49;;;;;;;8.83;4.27;;;;;;;;;;4976179;28;20893;-80
2021/03/29 06:55:21;;;;;;;6.80;4.07;;;;;;;;;;4975592;28;20416;-81
2021/03/29 06:58:03;;;;;;;6.20;3.97;;;;;;;;;;4975961;28;20807;-81
2021/03/29 07:00:34;;;;;;;10.23;4.33;;;;;;;;;;4975751;28;20413;-80
2021/03/29 07:03:09;;;;;;;5.40;4.10;;;;;;;;;;4975949;28;20459;-77
2021/03/29 07:05:37;;;;;;;6.70;4.40;;;;;;;;;;4975368;28;20507;-79
2021/03/29 07:08:05;;;;;;;6.00;4.60;;;;;;;;;;4975541;28;20552;-76
2021/03/29 07:10:31;;;;;;;7.40;4.33;;;;;;;;;;4976057;28;20416;-79
2021/03/29 07:12:57;;;;;;;7.87;5.30;;;;;;;;;;4975392;28;20426;-80
2021/03/29 07:15:24;;;;;;;10.70;5.30;;;;;;;;;;4958181;28;20433;-76
2021/03/29 07:17:50;;;;;;;6.20;4.30;;;;;;;;;;4975761;28;20417;-78
2021/03/29 07:20:26;;;;;;;9.90;4.80;;;;;;;;;;4974830;28;20851;-77
2021/03/29 07:22:54;;;;;;;10.40;4.50;;;;;;;;;;4957788;28;20516;-81
2021/03/29 07:25:21;;;;;;;9.63;4.70;;;;;;;;;;4975317;28;20421;-81
2021/03/29 07:27:47;;;;;;;8.43;4.00;;;;;;;;;;4975084;28;20476;-79
2021/03/29 07:30:15;;;;;;;10.70;4.47;;;;;;;;;;4975298;28;20422;-80
2021/03/29 07:32:41;;;;;;;7.10;3.50;;;;;;;;;;4957991;28;20474;-79
2021/03/29 07:35:07;;;;;;;5.07;3.93;;;;;;;;;;4974965;28;20426;-79
2021/03/29 07:37:37;;;;;;;8.07;3.70;;;;;;;;;;4974916;28;20968;-80
2021/03/29 07:43:14;;;;;;;7.80;3.23;;;;;;;;;;4974884;28;20487;-76
2021/03/29 07:45:41;;;;;;;5.10;2.87;;;;;;;;;;4974466;28;20454;-78
2021/03/29 07:48:08;;;;;;;6.00;3.07;;;;;;;;;;4974389;28;20486;-81
2021/03/29 07:50:33;;;;;;;9.50;2.70;;;;;;;;;;4974707;28;20425;-79
2021/03/29 07:52:59;;;;;;;3.20;2.67;;;;;;;;;;4974436;28;20418;-81
2021/03/29 07:58:29;;;;;;;6.43;3.80;;;;;;;;;;4974466;28;20417;-78
2021/03/29 08:01:08;;;;;;;10.73;5.67;;;;;;;;;;4974951;28;20450;-78
2021/03/29 08:03:34;;;;;;;17.53;6.07;;;;;;;;;;4982203;28;20554;-79
2021/03/29 08:06:00;;;;;;;14.20;5.53;;;;;;;;;;4976083;28;20439;-80
2021/03/29 08:08:26;;;;;;;22.33;6.03;;;;;;;;;;4974743;28;20457;-83
2021/03/29 08:11:04;;;;;;;15.30;5.20;;;;;;;;;;4974751;28;20410;-81
2021/03/29 08:13:37;;;;;;;14.07;6.50;;;;;;;;;;4974263;28;20427;-81
2021/03/29 08:16:04;;;;;;;9.33;4.90;;;;;;;;;;4974644;28;20758;-81
2021/03/29 08:18:49;;;;;;;9.37;6.20;;;;;;;;;;4974397;28;20418;-80
2021/03/29 08:21:33;;;;;;;12.43;4.80;;;;;;;;;;4974370;28;20875;-79
2021/03/29 08:24:00;;;;;;;7.30;4.60;;;;;;;;;;4973447;28;20425;-81
2021/03/29 08:26:37;;;;;;;9.13;4.70;;;;;;;;;;4974250;28;20481;-80
2021/03/29 08:29:09;;;;;;;8.80;5.50;;;;;;;;;;4974124;28;20818;-84
2021/03/29 08:31:53;;;;;;;10.37;3.87;;;;;;;;;;4973383;28;20513;-82
2021/03/29 08:34:19;;;;;;;11.90;3.60;;;;;;;;;;4973800;28;20410;-83
2021/03/29 08:36:45;;;;;;;6.87;3.23;;;;;;;;;;4973846;28;20524;-83
2021/03/29 08:39:12;;;;;;;9.10;4.10;;;;;;;;;;4973978;28;20426;-82
2021/03/29 08:41:38;;;;;;;5.17;3.40;;;;;;;;;;4974254;28;20423;-81
2021/03/29 08:44:05;;;;;;;2.90;1.87;;;;;;;;;;4974824;28;20446;-83
2021/03/29 08:46:33;;;;;;;4.13;2.13;;;;;;;;;;4974815;28;20841;-79
2021/03/29 08:48:59;;;;;;;5.60;3.07;;;;;;;;;;4974912;28;20808;-86
2021/03/29 08:51:27;;;;;;;6.87;3.60;;;;;;;;;;4977171;28;20410;-84
2021/03/29 08:54:12;;;;;;;4.03;2.33;;;;;;;;;;4974881;28;20808;-83
2021/03/29 08:56:39;;;;;;;2.00;1.77;;;;;;;;;;4976988;28;20831;-84
2021/03/29 08:59:05;;;;;;;3.30;2.10;;;;;;;;;;4975304;28;20417;-86
2021/03/29 09:01:31;;;;;;;2.47;1.57;;;;;;;;;;4974858;28;20402;-86
2021/03/29 09:04:04;;;;;;;3.23;2.70;;;;;;;;;;4974443;28;20502;-85
2021/03/29 09:06:31;;;;;;;3.67;2.20;;;;;;;;;;4974082;28;20504;-84
2021/03/29 09:08:58;;;;;;;2.30;2.03;;;;;;;;;;4974445;28;20431;-81
2021/03/29 09:11:24;;;;;;;6.03;2.07;;;;;;;;;;4974648;28;20484;-84
2021/03/29 09:13:54;;;;;;;3.10;1.50;;;;;;;;;;4958197;28;20434;-83
2021/03/29 09:16:24;;;;;;;3.00;2.10;;;;;;;;;;4975145;28;20429;-84
2021/03/29 09:18:50;;;;;;;4.13;1.93;;;;;;;;;;4974259;28;20435;-83
2021/03/29 09:21:23;;;;;;;3.70;1.90;;;;;;;;;;4975715;28;20415;-85
2021/03/29 09:23:49;;;;;;;2.23;1.60;;;;;;;;;;4975910;28;20426;-83
2021/03/29 09:29:31;;;;;;;5.53;2.10;;;;;;;;;;4973711;28;20449;-81
2021/03/29 09:31:57;;;;;;;3.30;1.70;;;;;;;;;;4974507;28;20486;-81
2021/03/29 09:34:23;;;;;;;4.50;1.70;;;;;;;;;;4974145;28;20406;-86
2021/03/29 09:36:49;;;;;;;4.33;1.80;;;;;;;;;;4974356;28;20485;-85
2021/03/29 09:39:15;;;;;;;2.13;1.73;;;;;;;;;;4957586;28;20423;-86
2021/03/29 09:41:49;;;;;;;4.43;1.47;;;;;;;;;;4974779;28;20455;-77
2021/03/29 09:44:15;;;;;;;3.13;1.80;;;;;;;;;;4974641;28;20472;-84
2021/03/29 09:46:41;;;;;;;3.30;1.60;;;;;;;;;;4973838;28;21019;-80
2021/03/29 09:49:08;;;;;;;3.43;1.60;;;;;;;;;;4956215;28;20832;-83
2021/03/29 09:51:35;;;;;;;2.83;1.50;;;;;;;;;;4956163;28;20553;-85
2021/03/29 09:54:01;;;;;;;2.70;1.70;;;;;;;;;;4973574;28;20889;-84
2021/03/29 09:59:31;;;;;;;2.70;1.67;;;;;;;;;;4974715;28;20452;-84
2021/03/29 10:01:58;;;;;;;2.77;1.20;;;;;;;;;;4975271;28;20423;-84
2021/03/29 10:04:25;;;;;;;4.47;1.53;;;;;;;;;;4974837;28;20422;-83
2021/03/29 10:06:55;;;;;;;2.33;1.90;;;;;;;;;;4957321;28;20565;-81
2021/03/29 10:09:30;;;;;;;3.57;2.10;;;;;;;;;;4978937;28;20426;-78
2021/03/29 10:11:56;;;;;;;1.50;1.40;;;;;;;;;;4973783;28;20415;-79
2021/03/29 10:14:31;;;;;;;3.03;1.60;;;;;;;;;;4973591;28;20423;-83
2021/03/29 10:16:58;;;;;;;3.20;2.00;;;;;;;;;;4975428;28;20418;-79
2021/03/29 10:19:34;;;;;;;4.83;1.57;;;;;;;;;;4962718;28;20447;-79
2021/03/29 10:22:13;;;;;;;3.63;1.50;;;;;;;;;;4977863;28;20512;-85
2021/03/29 10:24:56;;;;;;;4.30;1.77;;;;;;;;;;4977524;28;20501;-84
2021/03/29 10:27:23;;;;;;;3.93;1.30;;;;;;;;;;4977435;28;20470;-85
2021/03/29 10:29:49;;;;;;;3.33;1.50;;;;;;;;;;4976676;28;20897;-84
2021/03/29 10:32:24;;;;;;;3.37;1.40;;;;;;;;;;4977028;28;20513;-80
2021/03/29 10:34:50;;;;;;;4.13;1.70;;;;;;;;;;4977431;28;20453;-79
2021/03/29 10:37:23;;;;;;;2.20;1.70;;;;;;;;;;4976997;28;20477;-78
2021/03/29 10:39:50;;;;;;;5.63;2.03;;;;;;;;;;4978182;28;20410;-79
2021/03/29 10:42:17;;;;;;;2.60;1.33;;;;;;;;;;4977860;28;20418;-83
2021/03/29 10:44:43;;;;;;;2.40;1.40;;;;;;;;;;4976809;28;20399;-81
2021/03/29 10:47:10;;;;;;;1.77;1.37;;;;;;;;;;4977626;28;20470;-81
2021/03/29 10:49:36;;;;;;;2.30;2.03;;;;;;;;;;4959432;28;20433;-81
2021/03/29 10:52:02;;;;;;;3.80;2.03;;;;;;;;;;4976764;28;20430;-80
2021/03/29 10:54:28;;;;;;;3.20;1.37;;;;;;;;;;4976638;28;20505;-80
2021/03/29 10:59:57;;;;;;;2.20;1.40;;;;;;;;;;4976164;28;20438;-79
2021/03/29 11:02:23;;;;;;;3.63;1.77;;;;;;;;;;4976475;28;20414;-83
2021/03/29 11:04:49;;;;;;;1.50;1.40;;;;;;;;;;4976534;28;20422;-80
2021/03/29 11:07:15;;;;;;;4.10;1.50;;;;;;;;;;4976521;28;20470;-77
2021/03/29 11:09:41;;;;;;;2.50;1.63;;;;;;;;;;4975798;28;20469;-78
2021/03/29 11:15:11;;;;;;;3.07;1.77;;;;;;;;;;4976230;28;20502;-77
2021/03/29 11:17:38;;;;;;;3.73;2.43;;;;;;;;;;4975632;28;20494;-83
2021/03/29 11:20:05;;;;;;;1.47;1.20;;;;;;;;;;4976085;28;20453;-80
2021/03/29 11:22:31;;;;;;;3.90;1.53;;;;;;;;;;4975369;28;20886;-81
2021/03/29 11:24:57;;;;;;;2.40;1.20;;;;;;;;;;4976467;28;20472;-79
2021/03/29 11:30:26;;;;;;;3.13;1.80;;;;;;;;;;4976394;28;20430;-80
2021/03/29 11:32:53;;;;;;;4.73;1.50;;;;;;;;;;4975743;28;20399;-84
2021/03/29 11:35:19;;;;;;;2.00;1.10;;;;;;;;;;4975798;28;20418;-81
2021/03/29 11:37:45;;;;;;;3.40;1.60;;;;;;;;;;4975587;28;20474;-79
2021/03/29 11:40:13;;;;;;;3.63;1.60;;;;;;;;;;4975924;28;20517;-84
2021/03/29 11:42:39;;;;;;;3.17;1.40;;;;;;;;;;4975636;28;20418;-80
2021/03/29 11:45:06;;;;;;;2.30;1.90;;;;;;;;;;4975513;28;20952;-77
2021/03/29 11:47:32;;;;;;;8.33;2.33;;;;;;;;;;4975652;28;20835;-76
2021/03/29 11:49:58;;;;;;;4.97;1.80;;;;;;;;;;4975366;28;20415;-78
2021/03/29 11:52:24;;;;;;;4.80;1.37;;;;;;;;;;4975387;28;20415;-79
2021/03/29 11:54:50;;;;;;;3.70;1.63;;;;;;;;;;4975606;28;20440;-76
2021/03/29 12:02:59;;;;;;;1.70;1.60;;;;;;;;;;4975656;28;20415;-79
2021/03/29 12:05:31;;;;;;;2.30;1.70;;;;;;;;;;4975425;28;20415;-77
2021/03/29 12:13:20;;;;;;;2.73;1.63;;;;;;;;;;4975633;28;20489;-83
2021/03/29 12:15:49;;;;;;;1.70;1.33;;;;;;;;;;4975408;28;20428;-80
2021/03/29 12:18:19;;;;;;;1.90;1.60;;;;;;;;;;4975013;28;20410;-79
2021/03/29 12:20:45;;;;;;;2.93;1.63;;;;;;;;;;4974891;28;20506;-78
2021/03/29 12:23:13;;;;;;;3.47;2.00;;;;;;;;;;4975285;28;20415;-76
2021/03/29 12:25:39;;;;;;;2.63;1.20;;;;;;;;;;4978117;28;20415;-79
2021/03/29 12:28:07;;;;;;;5.50;1.60;;;;;;;;;;4981752;28;20968;-82
2021/03/29 12:30:33;;;;;;;2.00;1.10;;;;;;;;;;4976875;28;20411;-77
2021/03/29 12:32:59;;;;;;;3.10;1.20;;;;;;;;;;4975090;28;20498;-77
2021/03/29 12:35:25;;;;;;;4.40;1.83;;;;;;;;;;4974850;28;20410;-81
2021/03/29 12:37:53;;;;;;;2.83;1.40;;;;;;;;;;4974741;28;20474;-85
2021/03/29 12:40:23;;;;;;;3.60;1.60;;;;;;;;;;4974493;28;20422;-82
2021/03/29 12:45:54;;;;;;;3.03;1.73;;;;;;;;;;4974210;28;20425;-78
2021/03/29 12:48:21;;;;;;;4.10;1.30;;;;;;;;;;4973482;28;20984;-79
2021/03/29 13:00:08;;;;;;;2.50;1.50;;;;;;;;;;5092185;23;20985;-76
2021/03/29 13:02:36;;;;;;;3.90;1.70;;;;;;;;;;4945308;28;20969;-81
2021/03/29 13:05:08;;;;;;;3.17;1.50;;;;;;;;;;4948190;28;20436;-83
2021/03/29 13:07:39;;;;;;;2.87;1.37;;;;;;;;;;4948581;28;20483;-76
2021/03/29 13:10:14;;;;;;;2.63;1.60;;;;;;;;;;4930886;28;20513;-79
2021/03/29 13:12:41;;;;;;;3.33;1.33;;;;;;;;;;4948367;28;20463;-82
2021/03/29 13:15:08;;;;;;;4.37;1.87;;;;;;;;;;4929866;28;20526;-78
2021/03/29 13:17:39;;;;;;;2.00;1.20;;;;;;;;;;4947641;28;20521;-77
2021/03/29 13:20:05;;;;;;;4.77;1.40;;;;;;;;;;4948408;28;20483;-77
2021/03/29 13:22:31;;;;;;;1.73;1.63;;;;;;;;;;4948126;28;20534;-81
2021/03/29 13:24:57;;;;;;;3.50;1.63;;;;;;;;;;4931095;28;20471;-83
2021/03/29 13:27:23;;;;;;;2.77;1.60;;;;;;;;;;4946885;28;20653;-77
2021/03/29 13:29:49;;;;;;;2.27;1.60;;;;;;;;;;4947728;28;20522;-79
2021/03/29 13:32:16;;;;;;;1.63;1.30;;;;;;;;;;4948156;28;20463;-76
2021/03/29 13:34:43;;;;;;;4.77;1.97;;;;;;;;;;4949083;28;21012;-75
2021/03/29 13:37:09;;;;;;;2.73;1.40;;;;;;;;;;4949276;28;20446;-80
2021/03/29 13:39:36;;;;;;;2.30;2.10;;;;;;;;;;4947616;28;20443;-77
2021/03/29 13:42:03;;;;;;;9.00;2.63;;;;;;;;;;4947532;28;20494;-76
2021/03/29 13:44:30;;;;;;;2.23;1.57;;;;;;;;;;4948340;28;20546;-80
2021/03/29 13:46:56;;;;;;;2.97;1.43;;;;;;;;;;4948115;28;20478;-77
2021/03/29 13:49:25;;;;;;;3.27;1.53;;;;;;;;;;4948408;28;20443;-76
2021/03/29 13:51:52;;;;;;;5.43;2.70;;;;;;;;;;4932410;28;21009;-78
2021/03/29 13:54:19;;;;;;;2.67;1.50;;;;;;;;;;4952790;28;20443;-77
2021/03/29 13:56:45;;;;;;;3.40;1.77;;;;;;;;;;4953774;28;21040;-80
2021/03/29 13:59:12;;;;;;;2.30;1.40;;;;;;;;;;4954286;28;20569;-79
2021/03/29 14:01:38;;;;;;;4.53;1.97;;;;;;;;;;4957410;28;20446;-77
2021/03/29 14:04:06;;;;;;;3.10;2.00;;;;;;;;;;4956899;28;20439;-76
2021/03/29 14:06:32;;;;;;;2.93;2.37;;;;;;;;;;4955537;28;20526;-82
2021/03/29 14:08:58;;;;;;;2.50;1.40;;;;;;;;;;4944353;28;20885;-78
2021/03/29 14:11:24;;;;;;;6.03;2.43;;;;;;;;;;4957872;28;20954;-75
2021/03/29 14:13:51;;;;;;;3.50;1.37;;;;;;;;;;4956124;28;20542;-79
2021/03/29 14:16:17;;;;;;;2.93;1.50;;;;;;;;;;4935154;28;20439;-76
2021/03/29 14:18:45;;;;;;;3.40;1.70;;;;;;;;;;4954345;28;20446;-75
2021/03/29 14:21:15;;;;;;;3.27;2.33;;;;;;;;;;4953008;28;20476;-78
2021/03/29 14:23:42;;;;;;;6.57;1.70;;;;;;;;;;4952340;28;20435;-80
2021/03/29 14:26:09;;;;;;;4.13;2.13;;;;;;;;;;4951195;28;20447;-81
2021/03/29 14:28:35;;;;;;;2.60;1.80;;;;;;;;;;4951845;28;20479;-77
2021/03/29 14:31:02;;;;;;;2.03;1.70;;;;;;;;;;4931234;28;20439;-76
2021/03/29 14:33:28;;;;;;;4.43;2.13;;;;;;;;;;4920441;28;20455;-75
2021/03/29 14:36:04;;;;;;;4.33;1.87;;;;;;;;;;4952226;28;20431;-77
2021/03/29 14:38:44;;;;;;;4.07;1.87;;;;;;;;;;4952955;28;20446;-76
2021/03/29 14:46:28;;;;;;;4.30;2.03;;;;;;;;;;4950739;28;20969;-77
2021/03/29 14:48:54;;;;;;;1.90;1.63;;;;;;;;;;4934373;28;20443;-81
2021/03/29 14:51:20;;;;;;;2.40;1.70;;;;;;;;;;4950461;28;20439;-76
2021/03/29 14:53:46;;;;;;;5.00;1.60;;;;;;;;;;4944851;28;21770;-81
2021/03/29 14:56:12;;;;;;;5.00;2.20;;;;;;;;;;4949055;28;20480;-79
2021/03/29 14:58:38;;;;;;;3.23;1.20;;;;;;;;;;4948687;28;20786;-77
2021/03/29 15:01:04;;;;;;;2.37;1.50;;;;;;;;;;4947946;28;20486;-81
2021/03/29 15:03:31;;;;;;;4.13;2.27;;;;;;;;;;4946480;28;20443;-76
2021/03/29 15:08:23;;;;;;;2.00;1.70;;;;;;;;;;4955176;28;20482;-77
2021/03/29 15:10:49;;;;;;;8.77;2.13;;;;;;;;;;4952233;28;20443;-85
2021/03/29 15:13:15;;;;;;;4.23;2.13;;;;;;;;;;4931398;28;20802;-83
2021/03/29 15:15:41;;;;;;;3.43;1.67;;;;;;;;;;4947488;28;20561;-80
2021/03/29 15:18:07;;;;;;;2.70;1.63;;;;;;;;;;4947252;28;20451;-78
2021/03/29 15:20:33;;;;;;;3.70;1.70;;;;;;;;;;4947559;28;20459;-81
2021/03/29 15:22:59;;;;;;;5.83;1.73;;;;;;;;;;4948615;28;20808;-78
2021/03/29 15:25:25;;;;;;;2.93;1.60;;;;;;;;;;4950032;28;20463;-82
2021/03/29 15:27:52;;;;;;;2.60;1.30;;;;;;;;;;4948889;28;20513;-82
2021/03/29 15:30:18;;;;;;;4.90;2.13;;;;;;;;;;4952037;28;20957;-78
2021/03/29 15:32:44;;;;;;;2.73;1.30;;;;;;;;;;4951473;28;20446;-79
2021/03/29 15:35:11;;;;;;;3.77;1.63;;;;;;;;;;4953599;28;20984;-84
2021/03/29 15:37:37;;;;;;;3.23;1.73;;;;;;;;;;4954516;28;20458;-80
2021/03/29 15:40:05;;;;;;;3.70;1.70;;;;;;;;;;4953562;28;20467;-78
2021/03/29 15:42:31;;;;;;;3.40;1.37;;;;;;;;;;4952168;28;20502;-80
2021/03/29 15:44:58;;;;;;;4.23;2.20;;;;;;;;;;4950193;28;20493;-78
2021/03/29 15:47:24;;;;;;;1.90;1.50;;;;;;;;;;4948851;28;20482;-85
2021/03/29 15:49:50;;;;;;;5.20;2.00;;;;;;;;;;4950499;28;20443;-80
2021/03/29 15:52:16;;;;;;;2.63;1.57;;;;;;;;;;4950262;28;20454;-83
2021/03/29 15:54:42;;;;;;;3.20;2.00;;;;;;;;;;4950536;28;20532;-80
2021/03/29 15:57:09;;;;;;;2.10;1.87;;;;;;;;;;4949754;28;20455;-83
2021/03/29 15:59:38;;;;;;;4.67;1.97;;;;;;;;;;4907248;29;20487;-79
2021/03/29 16:02:08;;;;;;;5.03;1.93;;;;;;;;;;4912248;29;20460;-81
2021/03/29 16:04:36;;;;;;;6.83;2.17;;;;;;;;;;4912263;29;20476;-79
2021/03/29 16:07:02;;;;;;;5.03;1.80;;;;;;;;;;4912328;29;20592;-80
2021/03/29 16:09:28;;;;;;;2.87;1.87;;;;;;;;;;4914182;29;20449;-81
2021/03/29 16:11:55;;;;;;;3.57;1.77;;;;;;;;;;4912196;29;21071;-79
2021/03/29 16:14:21;;;;;;;4.60;1.70;;;;;;;;;;4913409;29;20457;-82
2021/03/29 16:16:47;;;;;;;2.00;1.63;;;;;;;;;;4911073;29;21071;-82
2021/03/29 16:19:13;;;;;;;3.20;1.80;;;;;;;;;;4908107;29;20548;-82
2021/03/29 16:21:39;;;;;;;2.60;1.63;;;;;;;;;;4910944;29;20457;-80
2021/03/29 16:24:06;;;;;;;5.33;1.47;;;;;;;;;;4909780;29;20456;-78
2021/03/29 16:26:32;;;;;;;3.70;1.70;;;;;;;;;;4910497;29;20485;-81
2021/03/29 16:29:02;;;;;;;6.33;1.70;;;;;;;;;;4908725;29;20457;-80